createdAt,value
2018-09-03T00:02:16.567Z,7.50
2018-09-03T00:04:44.109Z,8.53
2018-09-03T00:07:11.644Z,5.87
2018-09-03T00:09:41.287Z,7.20
2018-09-03T00:12:10.335Z,5.00
2018-09-03T00:14:38.421Z,7.23
2018-09-03T00:17:06.772Z,6.67
2018-09-03T00:19:34.741Z,7.23
2018-09-03T00:22:02.832Z,6.13
2018-09-03T00:24:30.515Z,5.23
2018-09-03T00:26:58.098Z,6.13
2018-09-03T00:29:26.549Z,4.73
2018-09-03T00:33:03.100Z,5.40
2018-09-03T00:35:37.288Z,7.60
2018-09-03T00:38:11.059Z,6.10
2018-09-03T00:40:44.875Z,5.87
2018-09-03T00:43:18.052Z,6.27
2018-09-03T00:45:51.387Z,7.33
2018-09-03T00:48:19.302Z,7.37
2018-09-03T00:50:47.359Z,6.03
2018-09-03T00:53:14.873Z,6.37
2018-09-03T00:55:42.455Z,7.80
2018-09-03T00:58:10.042Z,4.90
2018-09-03T01:00:37.647Z,4.77
2018-09-03T01:03:05.540Z,4.77
2018-09-03T01:05:33.128Z,4.10
2018-09-03T01:08:00.641Z,3.50
2018-09-03T01:10:29.399Z,5.30
2018-09-03T01:12:57.340Z,3.80
2018-09-03T01:15:27.017Z,6.83
2018-09-03T01:17:54.516Z,8.30
2018-09-03T01:20:22.046Z,5.67
2018-09-03T01:22:49.681Z,4.57
2018-09-03T01:25:17.312Z,5.50
2018-09-03T01:27:44.849Z,6.67
2018-09-03T01:30:13.552Z,5.10
2018-09-03T01:32:41.700Z,6.80
2018-09-03T01:35:09.195Z,4.93
2018-09-03T01:37:37.128Z,5.50
2018-09-03T01:40:05.295Z,5.37
2018-09-03T01:42:33.356Z,3.87
2018-09-03T01:45:01.465Z,3.50
2018-09-03T01:47:29.629Z,4.97
2018-09-03T01:49:57.166Z,6.07
2018-09-03T01:52:25.507Z,9.27
2018-09-03T01:54:53.421Z,9.70
2018-09-03T01:57:22.588Z,7.30
2018-09-03T01:59:50.195Z,5.20
2018-09-03T02:02:17.724Z,7.23
2018-09-03T02:04:45.280Z,7.87
2018-09-03T02:07:13.493Z,6.90
2018-09-03T02:09:41.027Z,6.40
2018-09-03T02:12:11.716Z,7.20
2018-09-03T02:14:39.753Z,8.37
2018-09-03T02:17:07.455Z,10.00
2018-09-03T02:19:34.991Z,9.70
2018-09-03T02:22:03.223Z,9.00
2018-09-03T02:24:30.862Z,8.37
2018-09-03T02:26:58.735Z,7.67
2018-09-03T02:29:27.852Z,6.90
2018-09-03T02:31:56.020Z,9.83
2018-09-03T02:34:23.535Z,8.27
2018-09-03T02:36:51.571Z,8.20
2018-09-03T02:39:20.917Z,7.00
2018-09-03T02:41:48.429Z,6.30
2018-09-03T02:44:16.267Z,8.23
2018-09-03T02:46:44.395Z,9.70
2018-09-03T02:49:11.950Z,10.30
2018-09-03T02:51:39.819Z,10.83
2018-09-03T02:54:07.373Z,12.20
2018-09-03T02:56:35.125Z,9.60
2018-09-03T02:59:02.710Z,10.63
2018-09-03T03:01:30.220Z,11.90
2018-09-03T03:03:57.755Z,9.20
2018-09-03T03:06:25.751Z,11.60
2018-09-03T03:08:53.339Z,8.20
2018-09-03T03:11:21.451Z,8.77
2018-09-03T03:13:49.063Z,8.80
2018-09-03T03:16:16.614Z,8.63
2018-09-03T03:18:44.516Z,6.17
2018-09-03T03:21:12.072Z,6.70
2018-09-03T03:23:39.599Z,6.40
2018-09-03T03:26:08.203Z,9.07
2018-09-03T03:28:35.832Z,6.83
2018-09-03T03:31:04.126Z,7.33
2018-09-03T03:33:31.663Z,7.90
2018-09-03T03:35:59.799Z,9.30
2018-09-03T03:38:28.499Z,9.17
2018-09-03T03:40:56.443Z,8.80
2018-09-03T03:43:24.718Z,9.50
2018-09-03T03:45:52.246Z,8.33
2018-09-03T03:48:19.747Z,10.30
2018-09-03T03:50:47.263Z,7.60
2018-09-03T03:53:15.678Z,5.90
2018-09-03T03:55:43.183Z,6.30
2018-09-03T03:58:10.739Z,9.63
2018-09-03T04:00:38.296Z,7.30
2018-09-03T04:03:06.189Z,7.40
2018-09-03T04:05:33.686Z,9.37
2018-09-03T04:08:01.179Z,10.23
2018-09-03T04:10:28.743Z,8.27
2018-09-03T04:13:02.339Z,11.00
2018-09-03T04:15:30.155Z,10.07
2018-09-03T04:17:57.676Z,8.47
2018-09-03T04:20:25.247Z,7.97
2018-09-03T04:22:52.856Z,10.10
2018-09-03T04:25:20.693Z,10.97
2018-09-03T04:27:48.495Z,9.17
2018-09-03T04:30:17.326Z,7.90
2018-09-03T04:32:44.866Z,7.60
2018-09-03T04:35:13.317Z,8.40
2018-09-03T04:37:41.715Z,9.90
2018-09-03T04:40:10.620Z,11.37
2018-09-03T04:42:38.651Z,10.40
2018-09-03T04:45:06.259Z,13.07
2018-09-03T04:47:33.811Z,9.57
2018-09-03T04:50:01.348Z,7.60
2018-09-03T04:52:28.895Z,11.40
2018-09-03T04:54:56.556Z,8.03
2018-09-03T04:57:24.297Z,6.97
2018-09-03T04:59:52.799Z,9.33
2018-09-03T05:02:21.097Z,9.50
2018-09-03T05:04:49.182Z,9.90
2018-09-03T05:07:16.710Z,9.63
2018-09-03T05:09:44.263Z,7.10
2018-09-03T05:12:12.353Z,6.10
2018-09-03T05:14:40.481Z,5.50
2018-09-03T05:17:08.047Z,10.77
2018-09-03T05:19:35.613Z,12.77
2018-09-03T05:22:03.488Z,10.53
2018-09-03T05:24:31.560Z,11.60
2018-09-03T05:26:59.091Z,13.80
2018-09-03T05:29:27.280Z,9.13
2018-09-03T05:31:55.196Z,7.53
2018-09-03T05:34:22.720Z,9.40
2018-09-03T05:36:50.768Z,9.63
2018-09-03T05:39:19.201Z,8.80
2018-09-03T05:41:47.088Z,6.90
2018-09-03T05:44:14.622Z,5.60
2018-09-03T05:46:42.159Z,6.03
2018-09-03T05:49:09.742Z,6.40
2018-09-03T05:51:38.072Z,7.97
2018-09-03T05:54:05.748Z,9.57
2018-09-03T05:56:33.278Z,7.40
2018-09-03T05:59:01.189Z,8.33
2018-09-03T06:01:28.702Z,10.03
2018-09-03T06:03:56.551Z,9.90
2018-09-03T06:06:24.059Z,9.00
2018-09-03T06:08:51.585Z,7.20
2018-09-03T06:11:19.589Z,7.60
2018-09-03T06:13:47.173Z,6.70
2018-09-03T06:16:14.742Z,7.00
2018-09-03T06:18:43.868Z,7.80
2018-09-03T06:21:12.109Z,7.30
2018-09-03T06:23:40.213Z,6.40
2018-09-03T06:26:07.743Z,6.30
2018-09-03T06:28:36.377Z,8.97
2018-09-03T06:31:04.471Z,5.60
2018-09-03T06:33:34.090Z,6.43
2018-09-03T06:36:01.995Z,9.80
2018-09-03T06:38:30.070Z,7.90
2018-09-03T06:40:58.059Z,7.10
2018-09-03T06:43:26.953Z,7.87
2018-09-03T06:45:54.504Z,6.60
2018-09-03T06:48:22.567Z,6.17
2018-09-03T06:50:50.151Z,8.20
2018-09-03T06:53:18.589Z,6.90
2018-09-03T06:55:47.400Z,9.83
2018-09-03T06:58:15.507Z,7.40
2018-09-03T07:00:43.021Z,8.63
2018-09-03T07:03:11.311Z,7.10
2018-09-03T07:05:38.957Z,7.00
2018-09-03T07:08:06.654Z,5.87
2018-09-03T07:10:38.227Z,6.50
2018-09-03T07:13:07.767Z,6.40
2018-09-03T07:15:37.176Z,6.67
2018-09-03T07:18:05.741Z,7.53
2018-09-03T07:20:34.266Z,5.87
2018-09-03T07:23:02.125Z,5.67
2018-09-03T07:25:29.747Z,6.93
2018-09-03T07:27:57.531Z,6.77
2018-09-03T07:30:25.547Z,7.30
2018-09-03T07:32:53.069Z,5.47
2018-09-03T07:35:20.588Z,4.80
2018-09-03T07:37:48.547Z,7.00
2018-09-03T07:40:18.174Z,6.93
2018-09-03T07:42:46.286Z,6.00
2018-09-03T07:45:13.799Z,4.60
2018-09-03T07:47:41.430Z,4.70
2018-09-03T07:50:08.947Z,5.13
2018-09-03T07:52:36.846Z,6.67
2018-09-03T07:55:05.744Z,6.13
2018-09-03T07:57:33.259Z,4.63
2018-09-03T08:00:00.771Z,5.40
2018-09-03T08:02:28.318Z,6.00
2018-09-03T08:04:55.840Z,5.77
2018-09-03T08:07:23.473Z,5.07
2018-09-03T08:09:51.562Z,5.90
2018-09-03T08:12:19.475Z,5.30
2018-09-03T08:14:47.851Z,4.13
2018-09-03T08:17:15.385Z,5.90
2018-09-03T08:19:42.951Z,4.93
2018-09-03T08:22:10.575Z,3.90
2018-09-03T08:24:38.647Z,4.90
2018-09-03T08:27:06.166Z,3.87
2018-09-03T08:29:34.112Z,5.27
2018-09-03T08:32:02.278Z,4.77
2018-09-03T08:34:29.812Z,4.00
2018-09-03T08:36:57.407Z,4.47
2018-09-03T08:39:26.333Z,4.30
2018-09-03T08:41:54.508Z,3.87
2018-09-03T08:44:22.015Z,3.97
2018-09-03T08:46:49.560Z,5.07
2018-09-03T08:49:17.457Z,4.47
2018-09-03T08:51:45.572Z,4.50
2018-09-03T08:54:13.104Z,4.73
2018-09-03T08:56:40.658Z,4.93
2018-09-03T08:59:08.354Z,4.67
2018-09-03T09:01:35.864Z,7.17
2018-09-03T09:04:03.481Z,5.70
2018-09-03T09:06:31.311Z,6.07
2018-09-03T09:08:59.860Z,5.50
2018-09-03T09:11:27.910Z,7.70
2018-09-03T09:13:55.791Z,7.60
2018-09-03T09:16:23.305Z,6.50
2018-09-03T09:18:50.837Z,6.30
2018-09-03T09:21:18.359Z,5.80
2018-09-03T09:23:45.897Z,5.37
2018-09-03T09:26:13.900Z,8.03
2018-09-03T09:28:41.524Z,6.30
2018-09-03T09:31:09.731Z,6.27
2018-09-03T09:33:37.276Z,6.30
2018-09-03T09:36:05.142Z,5.33
2018-09-03T09:38:32.966Z,5.27
2018-09-03T09:41:01.028Z,5.30
2018-09-03T09:43:28.654Z,5.50
2018-09-03T09:45:56.289Z,5.07
2018-09-03T09:48:24.447Z,5.80
2018-09-03T09:50:51.955Z,5.87
2018-09-03T10:00:09.915Z,6.10
2018-09-03T10:02:38.325Z,6.80
2018-09-03T10:05:07.133Z,7.07
2018-09-03T10:07:34.958Z,5.90
2018-09-03T10:10:02.941Z,5.67
2018-09-03T10:12:31.622Z,5.70
2018-09-03T10:15:00.255Z,5.37
2018-09-03T10:17:28.650Z,4.73
2018-09-03T10:19:56.637Z,5.10
2018-09-03T10:22:24.269Z,4.53
2018-09-03T10:24:52.345Z,4.20
2018-09-03T10:27:19.927Z,4.07
2018-09-03T10:29:47.443Z,4.53
2018-09-03T10:32:16.045Z,4.00
2018-09-03T10:34:43.588Z,3.70
2018-09-03T10:37:11.667Z,3.90
2018-09-03T10:39:39.667Z,4.33
2018-09-03T10:42:08.770Z,3.97
2018-09-03T10:44:36.312Z,4.50
2018-09-03T10:47:04.553Z,5.47
2018-09-03T10:49:32.668Z,5.47
2018-09-03T10:52:00.775Z,4.80
2018-09-03T10:54:28.642Z,5.70
2018-09-03T10:56:56.171Z,6.73
2018-09-03T10:59:23.699Z,6.57
2018-09-03T11:01:51.739Z,6.47
2018-09-03T11:04:19.263Z,6.60
2018-09-03T11:06:47.359Z,5.73
2018-09-03T11:09:15.980Z,5.40
2018-09-03T11:11:43.839Z,5.40
2018-09-03T11:14:11.427Z,5.97
2018-09-03T11:16:39.491Z,4.47
2018-09-03T11:19:08.003Z,4.90
2018-09-03T11:21:37.229Z,5.33
2018-09-03T11:24:05.364Z,6.10
2018-09-03T11:26:33.013Z,5.27
2018-09-03T11:29:00.623Z,5.37
2018-09-03T11:31:28.843Z,5.23
2018-09-03T11:33:56.367Z,4.73
2018-09-03T11:36:23.908Z,5.63
2018-09-03T11:38:52.443Z,5.87
2018-09-03T11:41:20.318Z,6.50
2018-09-03T11:43:48.155Z,6.47
2018-09-03T11:46:16.345Z,6.30
2018-09-03T11:48:43.847Z,7.57
2018-09-03T11:51:12.133Z,6.20
2018-09-03T11:53:40.911Z,5.07
2018-09-03T11:56:08.988Z,7.90
2018-09-03T11:58:36.678Z,6.50
2018-09-03T12:01:05.420Z,7.47
2018-09-03T12:03:33.442Z,7.97
2018-09-03T12:06:02.735Z,7.00
2018-09-03T12:08:30.303Z,8.00
2018-09-03T12:10:58.655Z,6.07
2018-09-03T12:13:27.079Z,6.40
2018-09-03T12:16:25.647Z,7.10
2018-09-03T12:18:58.623Z,9.80
2018-09-03T12:21:26.154Z,7.73
2018-09-03T12:23:54.380Z,8.63
2018-09-03T12:26:21.892Z,9.27
2018-09-03T12:28:49.406Z,9.80
2018-09-03T12:31:17.466Z,9.40
2018-09-03T12:33:45.014Z,9.00
2018-09-03T12:36:12.575Z,9.83
2018-09-03T12:38:40.502Z,10.43
2018-09-03T12:41:08.420Z,10.07
2018-09-03T12:43:36.340Z,10.03
2018-09-03T12:46:06.031Z,8.80
2018-09-03T12:48:33.937Z,8.50
2018-09-03T12:51:02.900Z,10.67
2018-09-03T12:53:31.255Z,9.37
2018-09-03T12:55:59.129Z,6.83
2018-09-03T12:58:26.687Z,7.70
2018-09-03T13:00:54.803Z,6.00
2018-09-03T13:03:22.967Z,8.57
2018-09-03T13:05:53.212Z,7.90
2018-09-03T13:08:21.006Z,7.50
2018-09-03T13:10:48.911Z,5.00
2018-09-03T13:13:17.161Z,5.53
2018-09-03T13:15:46.197Z,5.50
2018-09-03T13:18:13.819Z,6.77
2018-09-03T13:20:41.343Z,6.47
2018-09-03T13:23:08.877Z,7.60
2018-09-03T13:25:36.391Z,5.73
2018-09-03T13:28:04.135Z,7.17
2018-09-03T13:30:32.201Z,7.53
2018-09-03T13:32:59.747Z,6.13
2018-09-03T13:35:28.299Z,7.30
2018-09-03T13:37:56.288Z,6.40
2018-09-03T13:40:24.341Z,7.17
2018-09-03T13:42:52.391Z,6.37
2018-09-03T13:45:20.245Z,6.40
2018-09-03T13:47:48.676Z,6.97
2018-09-03T13:50:16.196Z,6.03
2018-09-03T13:52:43.819Z,6.80
2018-09-03T13:55:11.420Z,6.23
2018-09-03T13:57:39.236Z,6.07
2018-09-03T14:00:08.636Z,5.73
2018-09-03T14:02:36.176Z,4.37
2018-09-03T14:05:03.792Z,4.80
2018-09-03T14:07:31.331Z,5.90
2018-09-03T14:09:58.979Z,4.40
2018-09-03T14:12:26.949Z,4.13
2018-09-03T14:14:55.123Z,5.77
2018-09-03T14:17:22.739Z,5.43
2018-09-03T14:19:51.684Z,4.40
2018-09-03T14:22:19.273Z,4.23
2018-09-03T14:24:46.810Z,3.73
2018-09-03T14:27:14.437Z,3.80
2018-09-03T14:29:43.121Z,3.73
2018-09-03T14:32:12.174Z,3.47
2018-09-03T14:34:39.696Z,3.67
2018-09-03T14:37:08.207Z,2.87
2018-09-03T14:39:35.999Z,3.00
2018-09-03T14:42:03.886Z,3.37
2018-09-03T14:44:31.751Z,4.23
2018-09-03T14:47:00.271Z,3.63
2018-09-03T14:49:28.164Z,3.93
2018-09-03T14:51:57.160Z,3.40
2018-09-03T14:54:24.687Z,3.10
2018-09-03T14:56:53.196Z,3.17
2018-09-03T14:59:21.405Z,3.37
2018-09-03T15:01:48.940Z,4.07
2018-09-03T15:04:16.564Z,2.80
2018-09-03T15:06:44.443Z,2.70
2018-09-03T15:09:12.119Z,4.30
2018-09-03T15:11:40.460Z,5.63
2018-09-03T15:14:08.071Z,4.30
2018-09-03T15:16:35.581Z,3.70
2018-09-03T15:19:04.468Z,3.77
2018-09-03T15:21:32.702Z,4.27
2018-09-03T15:24:00.379Z,4.23
2018-09-03T15:26:28.285Z,3.27
2018-09-03T15:28:55.844Z,3.73
2018-09-03T15:31:24.412Z,4.13
2018-09-03T15:33:52.796Z,3.80
2018-09-03T15:36:21.053Z,4.40
2018-09-03T15:38:49.235Z,3.80
2018-09-03T15:41:17.302Z,4.77
2018-09-03T15:43:45.188Z,4.40
2018-09-03T15:46:13.108Z,5.60
2018-09-03T15:48:41.098Z,5.40
2018-09-03T15:51:08.636Z,4.93
2018-09-03T15:53:36.891Z,5.57
2018-09-03T15:56:04.931Z,5.17
2018-09-03T15:58:33.580Z,4.90
2018-09-03T16:01:01.309Z,3.90
2018-09-03T16:03:29.501Z,4.10
2018-09-03T16:05:57.687Z,4.00
2018-09-03T16:08:25.247Z,4.30
2018-09-03T16:10:53.404Z,3.70
2018-09-03T16:13:21.439Z,4.97
2018-09-03T16:15:48.964Z,3.50
2018-09-03T16:18:17.211Z,4.20
2018-09-03T16:20:44.782Z,3.90
2018-09-03T16:23:12.309Z,3.80
2018-09-03T16:25:39.843Z,4.70
2018-09-03T16:28:08.062Z,3.30
2018-09-03T16:30:37.044Z,3.93
2018-09-03T16:33:04.950Z,3.23
2018-09-03T16:35:32.511Z,3.67
2018-09-03T16:38:00.538Z,3.13
2018-09-03T16:40:28.592Z,4.17
2018-09-03T16:42:56.438Z,3.90
2018-09-03T16:45:24.516Z,4.10
2018-09-03T16:47:52.125Z,4.67
2018-09-03T16:50:19.660Z,4.10
2018-09-03T16:52:47.532Z,4.10
2018-09-03T16:55:15.201Z,3.30
2018-09-03T16:57:42.693Z,3.37
2018-09-03T17:00:10.374Z,2.90
2018-09-03T17:02:39.107Z,3.93
2018-09-03T17:05:06.863Z,3.60
2018-09-03T17:07:35.030Z,3.60
2018-09-03T17:10:03.184Z,3.40
2018-09-03T17:12:31.423Z,3.67
2018-09-03T17:14:58.956Z,3.93
2018-09-03T17:17:27.175Z,5.00
2018-09-03T17:19:55.163Z,4.57
2018-09-03T17:22:22.867Z,4.30
2018-09-03T17:24:50.789Z,3.83
2018-09-03T17:27:19.823Z,3.33
2018-09-03T17:29:48.669Z,6.57
2018-09-03T17:32:16.655Z,8.00
2018-09-03T17:34:44.985Z,7.17
2018-09-03T17:37:12.891Z,7.83
2018-09-03T17:39:41.037Z,7.13
2018-09-03T17:42:08.865Z,11.30
2018-09-03T17:44:36.403Z,6.80
2018-09-03T17:47:04.088Z,5.33
2018-09-03T17:49:31.689Z,6.30
2018-09-03T17:51:59.668Z,5.00
2018-09-03T17:54:27.265Z,3.90
2018-09-03T17:56:55.219Z,4.40
2018-09-03T17:59:22.757Z,4.87
2018-09-03T18:01:50.494Z,4.43
2018-09-03T18:04:18.366Z,4.80
2018-09-03T18:06:46.505Z,4.40
2018-09-03T18:09:14.527Z,4.13
2018-09-03T18:11:42.535Z,4.40
2018-09-03T18:14:10.363Z,4.20
2018-09-03T18:16:37.956Z,4.37
2018-09-03T18:19:06.735Z,4.50
2018-09-03T18:21:35.241Z,5.20
2018-09-03T18:24:03.023Z,4.67
2018-09-03T18:26:31.442Z,4.27
2018-09-03T18:28:59.039Z,4.47
2018-09-03T18:31:27.234Z,6.97
2018-09-03T18:33:55.263Z,6.23
2018-09-03T18:36:22.860Z,4.33
2018-09-03T18:38:52.324Z,4.30
2018-09-03T18:41:20.947Z,3.77
2018-09-03T18:43:49.108Z,4.07
2018-09-03T18:46:17.339Z,4.40
2018-09-03T18:48:45.408Z,3.40
2018-09-03T18:51:13.158Z,3.80
2018-09-03T18:53:40.761Z,4.43
2018-09-03T18:56:08.961Z,4.20
2018-09-03T18:58:37.231Z,3.97
2018-09-03T19:01:05.566Z,5.20
2018-09-03T19:03:33.892Z,5.67
2018-09-03T19:06:01.589Z,5.30
2018-09-03T19:08:29.550Z,4.10
2018-09-03T19:10:57.484Z,4.07
2018-09-03T19:13:25.057Z,3.47
2018-09-03T19:15:52.912Z,4.47
2018-09-03T19:18:21.047Z,4.90
2018-09-03T19:20:48.841Z,4.40
2018-09-03T19:23:16.601Z,4.13
2018-09-03T19:25:44.806Z,3.57
2018-09-03T19:28:12.923Z,3.70
2018-09-03T19:30:41.233Z,3.90
2018-09-03T19:33:09.180Z,4.00
2018-09-03T19:35:36.895Z,3.80
2018-09-03T19:38:05.406Z,3.57
2018-09-03T19:40:33.348Z,3.80
2018-09-03T19:43:01.713Z,5.13
2018-09-03T19:45:30.010Z,5.20
2018-09-03T19:47:57.531Z,5.60
2018-09-03T19:50:25.218Z,4.60
2018-09-03T19:52:53.488Z,4.77
2018-09-03T19:55:21.023Z,4.30
2018-09-03T19:57:49.042Z,4.20
2018-09-03T20:00:17.726Z,4.50
2018-09-03T20:02:45.276Z,3.20
2018-09-03T20:05:14.056Z,3.77
2018-09-03T20:07:41.873Z,4.43
2018-09-03T20:10:10.732Z,4.57
2018-09-03T20:12:38.917Z,4.57
2018-09-03T20:15:08.919Z,4.63
2018-09-03T20:17:37.225Z,4.00
2018-09-03T20:20:05.924Z,3.80
2018-09-03T20:22:34.193Z,4.40
2018-09-03T20:25:01.921Z,4.30
2018-09-03T20:27:30.585Z,4.63
2018-09-03T20:29:58.116Z,3.90
2018-09-03T20:32:25.963Z,3.20
2018-09-03T20:34:53.487Z,3.23
2018-09-03T20:38:51.054Z,4.03
2018-09-03T20:41:19.060Z,3.60
2018-09-03T20:43:47.140Z,3.53
2018-09-03T20:47:44.515Z,3.90
2018-09-03T20:50:12.455Z,4.50
2018-09-03T20:52:40.358Z,4.37
2018-09-03T20:55:08.619Z,4.70
2018-09-03T20:57:36.501Z,4.10
2018-09-03T21:00:05.119Z,3.53
2018-09-03T21:02:33.366Z,3.60
2018-09-03T21:05:01.970Z,6.03
2018-09-03T21:07:30.407Z,5.20
2018-09-03T21:09:57.971Z,5.40
2018-09-03T21:12:26.654Z,5.03
2018-09-03T21:14:54.212Z,5.33
2018-09-03T21:17:22.150Z,5.70
2018-09-03T21:19:50.677Z,6.30
2018-09-03T21:22:18.546Z,6.53
2018-09-03T21:24:46.512Z,5.93
2018-09-03T21:27:14.030Z,5.37
2018-09-03T21:29:42.084Z,5.07
2018-09-03T21:32:10.049Z,6.10
2018-09-03T21:34:37.559Z,5.67
2018-09-03T21:37:05.613Z,5.83
2018-09-03T21:39:34.053Z,6.00
2018-09-03T21:42:02.085Z,6.20
2018-09-03T21:44:29.682Z,7.33
2018-09-03T21:46:57.229Z,5.07
2018-09-03T21:49:25.688Z,5.30
2018-09-03T21:51:53.723Z,5.30
2018-09-03T21:54:21.607Z,5.53
2018-09-03T21:56:49.925Z,5.83
2018-09-03T21:59:18.042Z,5.60
2018-09-03T22:01:45.638Z,7.47
2018-09-03T22:04:13.495Z,8.30
2018-09-03T22:06:41.065Z,7.63
2018-09-03T22:09:08.585Z,6.60
2018-09-03T22:11:36.796Z,6.20
2018-09-03T22:14:04.387Z,5.73
2018-09-03T22:16:33.180Z,5.00
2018-09-03T22:19:01.225Z,5.47
2018-09-03T22:21:28.912Z,6.37
2018-09-03T22:23:56.443Z,4.60
2018-09-03T22:26:24.605Z,4.80
2018-09-03T22:28:52.622Z,3.83
2018-09-03T22:31:20.860Z,4.93
2018-09-03T22:33:48.423Z,5.77
2018-09-03T22:36:15.975Z,6.43
2018-09-03T22:38:44.178Z,7.40
2018-09-03T22:41:12.184Z,6.13
2018-09-03T22:43:40.415Z,7.13
2018-09-03T22:46:08.037Z,6.60
2018-09-03T22:48:35.594Z,5.90
2018-09-03T22:51:03.196Z,6.27
2018-09-03T22:53:33.101Z,6.30
2018-09-03T22:56:00.935Z,5.30
2018-09-03T22:58:28.933Z,5.60
2018-09-03T23:00:56.451Z,6.20
2018-09-03T23:03:24.430Z,5.37
2018-09-03T23:05:51.939Z,6.67
2018-09-03T23:08:19.480Z,5.37
2018-09-03T23:10:47.332Z,5.00
2018-09-03T23:13:14.926Z,6.33
2018-09-03T23:15:49.381Z,5.30
2018-09-03T23:18:17.270Z,5.23
2018-09-03T23:20:46.015Z,6.90
2018-09-03T23:23:13.551Z,5.23
2018-09-03T23:25:41.415Z,4.20
2018-09-03T23:28:09.403Z,4.70
2018-09-03T23:30:36.891Z,5.60
2018-09-03T23:33:04.855Z,4.63
2018-09-03T23:35:33.348Z,4.90
2018-09-03T23:38:01.379Z,5.37
2018-09-03T23:40:29.200Z,5.23
2018-09-03T23:42:56.839Z,4.70
2018-09-03T23:45:24.495Z,5.70
2018-09-03T23:47:52.063Z,5.37
2018-09-03T23:50:19.992Z,4.30
2018-09-03T23:52:47.508Z,5.20
2018-09-03T23:55:15.063Z,6.47
2018-09-03T23:57:43.507Z,5.27
